Kudat, Malaysia
Current Conditions -  °F | °C
As of 11:00 AM on Thursday 27 Nov 2014 (Local Time) from WBKT Reporting Station
Broken Clouds Broken Clouds  
Wind Chill: 88°   Ceiling: 28000
Heat Index: 102°   Visibility: 6mi
Dew Point: 79°   Wind: 3mph
Humidity: 75%   Direction: 70°ENE
Pressure: 29.77"   Gusts: NA
Location:  6.9°N, 116.84°E
Report Text: WBKT 270300Z 07003KT 9999 FEW014 FEW015CB SCT140 BKN280 31/26 Q1008
Loading
Personal Weather Stations






























Interactive Weather Map New forecast layout! Learn more

10-Day Weather Forecast

Advertisements
Track Severe Weather on mobile